Time;durP1;ratioP1;P1;durP2;ratioP2;P2;SDS_P1;SDS_P2;PMS_P1;PMS_P2;Temp;Humidity;BMP_temperature;BMP_pressure;BME280_temperature;BME280_humidity;BME280_pressure;Samples;Min_cycle;Max_cycle;Signal;HPM_P1;HPM_P2
2023/10/27 00:01:19;;;;;;;21.37;18.67;;;;;;;;;;5017382;28;20670;-70
2023/10/27 00:03:44;;;;;;;22.90;18.53;;;;;;;;;;5016293;28;20274;-70
2023/10/27 00:06:10;;;;;;;27.17;18.07;;;;;;;;;;5015873;28;20190;-70
2023/10/27 00:08:36;;;;;;;26.63;19.30;;;;;;;;;;5016383;28;20187;-71
2023/10/27 00:11:06;;;;;;;30.30;20.00;;;;;;;;;;5015235;28;20246;-70
2023/10/27 00:13:32;;;;;;;26.57;19.67;;;;;;;;;;5015446;28;20792;-72
2023/10/27 00:15:58;;;;;;;26.47;19.80;;;;;;;;;;5015189;28;20180;-70
2023/10/27 00:18:24;;;;;;;23.43;20.33;;;;;;;;;;5014913;28;20180;-71
2023/10/27 00:20:50;;;;;;;26.73;19.30;;;;;;;;;;5018780;28;20199;-72
2023/10/27 00:23:17;;;;;;;26.13;19.50;;;;;;;;;;5019518;28;20187;-71
2023/10/27 00:25:43;;;;;;;25.00;18.80;;;;;;;;;;5015953;28;20192;-71
2023/10/27 00:28:09;;;;;;;21.93;18.83;;;;;;;;;;5016711;28;20255;-71
2023/10/27 00:30:35;;;;;;;29.70;19.13;;;;;;;;;;5013928;28;20204;-71
2023/10/27 00:33:01;;;;;;;24.00;17.60;;;;;;;;;;5013626;28;20261;-71
2023/10/27 00:35:27;;;;;;;24.63;19.37;;;;;;;;;;5014591;28;20204;-71
2023/10/27 00:37:53;;;;;;;20.27;18.13;;;;;;;;;;5013069;28;20175;-71
2023/10/27 00:40:19;;;;;;;22.80;18.33;;;;;;;;;;5013931;28;20179;-71
2023/10/27 00:42:45;;;;;;;27.60;17.90;;;;;;;;;;5014579;28;20176;-71
2023/10/27 00:45:11;;;;;;;25.23;17.97;;;;;;;;;;5012836;28;20270;-72
2023/10/27 00:47:37;;;;;;;24.03;17.80;;;;;;;;;;5014076;28;20176;-72
2023/10/27 00:50:03;;;;;;;22.70;17.30;;;;;;;;;;5012726;28;20266;-71
2023/10/27 00:52:30;;;;;;;22.13;17.07;;;;;;;;;;5012754;28;20184;-73
2023/10/27 00:54:56;;;;;;;23.27;17.57;;;;;;;;;;5013082;28;20657;-73
2023/10/27 00:57:25;;;;;;;24.03;18.53;;;;;;;;;;5014026;28;20175;-73
2023/10/27 00:59:52;;;;;;;27.40;17.63;;;;;;;;;;5013847;28;20650;-73
2023/10/27 01:02:18;;;;;;;25.77;18.63;;;;;;;;;;5012267;28;20200;-73
2023/10/27 01:04:45;;;;;;;22.23;18.77;;;;;;;;;;5013726;28;20327;-73
2023/10/27 01:07:11;;;;;;;25.60;18.40;;;;;;;;;;5013671;28;20642;-73
2023/10/27 01:09:37;;;;;;;28.33;19.73;;;;;;;;;;5013640;28;20183;-73
2023/10/27 01:12:03;;;;;;;26.37;19.23;;;;;;;;;;5013419;28;20579;-73
2023/10/27 01:14:29;;;;;;;22.23;17.73;;;;;;;;;;5014183;28;20346;-71
2023/10/27 01:16:56;;;;;;;27.13;18.47;;;;;;;;;;5014303;28;20646;-71
2023/10/27 01:19:22;;;;;;;28.73;18.27;;;;;;;;;;5012608;28;20180;-71
2023/10/27 01:21:48;;;;;;;25.07;18.60;;;;;;;;;;5012136;28;20195;-72
2023/10/27 01:24:14;;;;;;;26.50;18.67;;;;;;;;;;5012410;28;20190;-71
2023/10/27 01:26:40;;;;;;;27.27;17.87;;;;;;;;;;5012312;28;20183;-71
2023/10/27 01:29:06;;;;;;;26.03;18.37;;;;;;;;;;5012271;28;20211;-72
2023/10/27 01:31:32;;;;;;;21.47;17.37;;;;;;;;;;5013599;28;20200;-72
2023/10/27 01:33:58;;;;;;;23.90;17.20;;;;;;;;;;5013584;28;20278;-71
2023/10/27 01:36:24;;;;;;;22.07;17.10;;;;;;;;;;5015375;28;20188;-71
2023/10/27 01:38:50;;;;;;;22.97;16.57;;;;;;;;;;5017584;28;20180;-71
2023/10/27 01:41:17;;;;;;;24.77;15.97;;;;;;;;;;5016242;28;20753;-71
2023/10/27 01:43:43;;;;;;;28.97;17.13;;;;;;;;;;5017498;28;20176;-72
2023/10/27 01:46:09;;;;;;;33.93;17.60;;;;;;;;;;5016058;28;20270;-72
2023/10/27 01:48:36;;;;;;;25.60;16.70;;;;;;;;;;5017459;28;20179;-72
2023/10/27 01:51:03;;;;;;;27.87;16.90;;;;;;;;;;5016034;28;20592;-71
2023/10/27 01:53:29;;;;;;;28.00;16.77;;;;;;;;;;5017189;28;20191;-71
2023/10/27 01:55:55;;;;;;;33.77;16.97;;;;;;;;;;5016067;28;20187;-71
2023/10/27 01:58:21;;;;;;;31.83;16.33;;;;;;;;;;5017574;28;20191;-72
2023/10/27 02:00:47;;;;;;;25.20;15.37;;;;;;;;;;5015841;28;20582;-71
2023/10/27 02:03:13;;;;;;;24.63;14.63;;;;;;;;;;5017249;28;20188;-72
2023/10/27 02:05:43;;;;;;;27.03;15.03;;;;;;;;;;5016028;28;20180;-71
2023/10/27 02:08:09;;;;;;;27.33;14.83;;;;;;;;;;5017270;28;20622;-72
2023/10/27 02:10:35;;;;;;;26.93;14.07;;;;;;;;;;5016985;28;20261;-72
2023/10/27 02:13:01;;;;;;;29.03;15.57;;;;;;;;;;5015845;28;20214;-72
2023/10/27 02:15:27;;;;;;;29.13;14.73;;;;;;;;;;5015815;28;20176;-72
2023/10/27 02:17:53;;;;;;;30.87;14.93;;;;;;;;;;5016920;28;20180;-71
2023/10/27 02:20:19;;;;;;;28.80;14.57;;;;;;;;;;5015420;28;20266;-71
2023/10/27 02:22:45;;;;;;;33.60;15.20;;;;;;;;;;5018065;28;20262;-72
2023/10/27 02:25:11;;;;;;;32.87;15.67;;;;;;;;;;5016636;28;20229;-71
2023/10/27 02:27:40;;;;;;;26.37;14.77;;;;;;;;;;5016504;28;20179;-72
2023/10/27 02:30:07;;;;;;;26.73;14.00;;;;;;;;;;5015268;28;20184;-72
2023/10/27 02:32:33;;;;;;;24.07;14.33;;;;;;;;;;5019541;28;20184;-71
2023/10/27 02:34:59;;;;;;;28.80;14.43;;;;;;;;;;5021258;28;20214;-72
2023/10/27 02:37:25;;;;;;;31.93;12.97;;;;;;;;;;5019383;28;20180;-71
2023/10/27 02:39:51;;;;;;;29.07;14.10;;;;;;;;;;5016621;28;20597;-71
2023/10/27 02:42:17;;;;;;;25.63;12.63;;;;;;;;;;5014935;28;20211;-71
2023/10/27 02:44:43;;;;;;;31.53;13.43;;;;;;;;;;5014828;28;20176;-71
2023/10/27 02:47:09;;;;;;;24.57;12.90;;;;;;;;;;5016118;28;20180;-71
2023/10/27 02:49:35;;;;;;;22.87;12.90;;;;;;;;;;5014524;28;20187;-71
2023/10/27 02:52:01;;;;;;;22.93;12.47;;;;;;;;;;5015753;28;20203;-71
2023/10/27 02:54:27;;;;;;;35.90;12.07;;;;;;;;;;5015397;28;20210;-71
2023/10/27 02:56:53;;;;;;;44.87;24.30;;;;;;;;;;5015685;28;20172;-71
2023/10/27 02:59:19;;;;;;;29.80;13.83;;;;;;;;;;5014090;28;20568;-71
2023/10/27 03:01:45;;;;;;;26.27;12.40;;;;;;;;;;5015332;28;20616;-73
2023/10/27 03:04:12;;;;;;;27.03;12.50;;;;;;;;;;5015380;28;20244;-71
2023/10/27 03:06:38;;;;;;;22.60;11.10;;;;;;;;;;5015424;28;20653;-72
2023/10/27 03:09:04;;;;;;;28.83;12.20;;;;;;;;;;5015148;28;20206;-71
2023/10/27 03:11:30;;;;;;;26.93;12.03;;;;;;;;;;5013457;28;20203;-72
2023/10/27 03:13:56;;;;;;;22.50;12.20;;;;;;;;;;5027720;28;20238;-71
2023/10/27 03:16:22;;;;;;;24.17;12.07;;;;;;;;;;5027674;28;20233;-71
2023/10/27 03:18:48;;;;;;;26.67;12.37;;;;;;;;;;5019937;28;20180;-71
2023/10/27 03:21:14;;;;;;;22.37;12.63;;;;;;;;;;5018817;28;20749;-71
2023/10/27 03:23:41;;;;;;;23.87;12.07;;;;;;;;;;5019592;28;20250;-71
2023/10/27 03:26:07;;;;;;;31.50;12.60;;;;;;;;;;5018501;28;20263;-71
2023/10/27 03:28:33;;;;;;;26.40;11.87;;;;;;;;;;5015829;28;20214;-71
2023/10/27 03:30:59;;;;;;;22.57;11.87;;;;;;;;;;5014239;28;20233;-71
2023/10/27 03:33:24;;;;;;;20.87;11.23;;;;;;;;;;5014826;28;20214;-71
2023/10/27 03:35:51;;;;;;;26.47;11.10;;;;;;;;;;5014643;28;20176;-71
2023/10/27 03:38:17;;;;;;;24.97;11.17;;;;;;;;;;5013236;28;20184;-71
2023/10/27 03:40:44;;;;;;;30.37;12.53;;;;;;;;;;4976816;28;1054782;-71
2023/10/27 03:43:10;;;;;;;23.63;11.57;;;;;;;;;;5015677;28;20183;-71
2023/10/27 03:45:37;;;;;;;24.70;10.23;;;;;;;;;;5015585;28;20634;-72
2023/10/27 03:48:03;;;;;;;24.33;11.90;;;;;;;;;;5013887;28;20666;-71
2023/10/27 03:50:29;;;;;;;26.70;10.87;;;;;;;;;;5015310;28;20242;-71
2023/10/27 03:52:55;;;;;;;30.70;11.13;;;;;;;;;;5015168;28;20638;-71
2023/10/27 03:55:21;;;;;;;31.90;12.13;;;;;;;;;;5013743;28;20184;-71
2023/10/27 03:57:47;;;;;;;27.13;10.00;;;;;;;;;;5014510;28;20246;-71
2023/10/27 04:00:15;;;;;;;24.87;12.40;;;;;;;;;;5013486;28;20184;-71
2023/10/27 04:02:41;;;;;;;21.37;10.90;;;;;;;;;;5013591;28;20187;-70
2023/10/27 04:05:07;;;;;;;32.40;11.23;;;;;;;;;;5014988;28;20258;-71
2023/10/27 04:07:33;;;;;;;27.33;11.30;;;;;;;;;;5013544;28;20180;-71
2023/10/27 04:09:59;;;;;;;30.53;11.37;;;;;;;;;;5015011;28;20172;-71
2023/10/27 04:12:25;;;;;;;21.17;11.00;;;;;;;;;;5016434;28;20211;-72
2023/10/27 04:14:51;;;;;;;21.73;10.60;;;;;;;;;;5028515;28;20231;-72
2023/10/27 04:17:17;;;;;;;26.47;10.97;;;;;;;;;;5028284;28;20164;-72
2023/10/27 04:19:43;;;;;;;24.67;10.63;;;;;;;;;;5029274;28;20171;-71
2023/10/27 04:22:09;;;;;;;29.20;10.27;;;;;;;;;;5026344;28;20223;-71
2023/10/27 04:24:35;;;;;;;33.13;17.83;;;;;;;;;;5025085;28;20187;-71
2023/10/27 04:27:01;;;;;;;38.80;22.03;;;;;;;;;;5025318;28;20587;-71
2023/10/27 04:29:27;;;;;;;33.33;16.03;;;;;;;;;;5027595;28;20202;-71
2023/10/27 04:31:53;;;;;;;49.37;37.30;;;;;;;;;;5029729;28;20210;-71
2023/10/27 04:34:20;;;;;;;41.67;23.93;;;;;;;;;;5029708;28;20207;-70
2023/10/27 04:36:46;;;;;;;30.13;17.40;;;;;;;;;;5029828;28;20168;-70
2023/10/27 04:39:11;;;;;;;32.60;18.03;;;;;;;;;;5026681;28;20251;-71
2023/10/27 04:41:38;;;;;;;36.87;20.27;;;;;;;;;;5023339;28;20238;-71
2023/10/27 04:44:04;;;;;;;34.57;23.10;;;;;;;;;;5023676;28;20188;-72
2023/10/27 04:46:30;;;;;;;40.30;20.17;;;;;;;;;;5024525;28;20183;-71
2023/10/27 04:48:59;;;;;;;40.03;18.87;;;;;;;;;;5024205;28;20203;-71
2023/10/27 04:51:26;;;;;;;22.57;13.80;;;;;;;;;;5025670;28;20257;-71
2023/10/27 04:53:52;;;;;;;27.00;12.87;;;;;;;;;;5026756;28;20218;-72
2023/10/27 04:56:18;;;;;;;30.33;12.70;;;;;;;;;;5024650;28;20188;-71
2023/10/27 04:58:44;;;;;;;29.03;11.00;;;;;;;;;;5023303;28;20184;-71
2023/10/27 05:01:11;;;;;;;25.13;11.83;;;;;;;;;;5022503;28;20208;-71
2023/10/27 05:03:37;;;;;;;29.50;10.60;;;;;;;;;;5028087;28;20200;-72
2023/10/27 05:06:07;;;;;;;21.93;9.90;;;;;;;;;;5025884;28;20555;-71
2023/10/27 05:08:33;;;;;;;18.07;8.97;;;;;;;;;;5028401;28;20186;-72
2023/10/27 05:10:59;;;;;;;30.17;9.33;;;;;;;;;;5029161;28;20223;-71
2023/10/27 05:13:25;;;;;;;21.17;8.77;;;;;;;;;;5026907;28;20200;-72
2023/10/27 05:15:54;;;;;;;25.10;8.47;;;;;;;;;;5027421;28;20186;-71
2023/10/27 05:18:20;;;;;;;15.87;7.90;;;;;;;;;;5027763;28;20178;-71
2023/10/27 05:20:46;;;;;;;24.20;9.23;;;;;;;;;;5028662;28;20200;-71
2023/10/27 05:23:12;;;;;;;30.50;9.23;;;;;;;;;;5027433;28;20203;-73
2023/10/27 05:25:38;;;;;;;26.35;11.00;;;;;;;;;;5029371;28;20465;-71
2023/10/27 05:28:04;;;;;;;25.23;11.10;;;;;;;;;;5029237;28;20393;-72
2023/10/27 05:30:30;;;;;;;27.00;9.87;;;;;;;;;;5025894;28;20231;-71
2023/10/27 05:32:56;;;;;;;26.87;8.87;;;;;;;;;;5024418;28;20179;-72
2023/10/27 05:35:22;;;;;;;19.37;7.63;;;;;;;;;;5027636;28;20186;-72
2023/10/27 05:37:48;;;;;;;24.23;8.10;;;;;;;;;;5023614;28;20180;-69
2023/10/27 05:40:14;;;;;;;24.77;8.80;;;;;;;;;;5025134;28;20542;-71
2023/10/27 05:42:40;;;;;;;27.07;8.73;;;;;;;;;;5023470;28;20186;-71
2023/10/27 05:45:07;;;;;;;24.77;8.17;;;;;;;;;;5023734;28;20251;-71
2023/10/27 05:47:33;;;;;;;18.37;7.43;;;;;;;;;;5024082;28;20191;-71
2023/10/27 05:49:59;;;;;;;21.80;7.77;;;;;;;;;;5023701;28;20183;-71
2023/10/27 05:52:25;;;;;;;24.63;7.70;;;;;;;;;;5023593;23;20277;-68
2023/10/27 05:54:51;;;;;;;25.43;8.00;;;;;;;;;;4993726;28;20306;-69
2023/10/27 05:57:17;;;;;;;20.43;7.07;;;;;;;;;;4995083;28;20697;-71
2023/10/27 05:59:43;;;;;;;15.13;7.07;;;;;;;;;;4997347;28;20176;-71
2023/10/27 06:02:09;;;;;;;26.27;7.93;;;;;;;;;;4995896;28;20200;-70
2023/10/27 06:04:36;;;;;;;24.13;7.43;;;;;;;;;;4997069;28;20180;-71
2023/10/27 06:07:02;;;;;;;17.43;6.83;;;;;;;;;;4997547;28;20268;-71
2023/10/27 06:09:29;;;;;;;19.57;6.73;;;;;;;;;;4997687;28;20635;-70
2023/10/27 06:11:55;;;;;;;20.27;7.27;;;;;;;;;;4995832;28;20357;-70
2023/10/27 06:14:21;;;;;;;23.30;7.70;;;;;;;;;;4995018;28;20283;-71
2023/10/27 06:16:47;;;;;;;21.13;7.30;;;;;;;;;;4994823;28;20173;-70
2023/10/27 06:19:13;;;;;;;22.20;7.57;;;;;;;;;;4994017;28;20209;-70
2023/10/27 06:21:39;;;;;;;23.50;7.43;;;;;;;;;;4995528;28;20232;-70
2023/10/27 06:24:07;;;;;;;22.57;7.33;;;;;;;;;;4998107;28;20577;-70
2023/10/27 06:26:33;;;;;;;23.47;7.23;;;;;;;;;;4997503;28;20180;-70
2023/10/27 06:28:59;;;;;;;19.33;7.33;;;;;;;;;;4997834;28;20191;-70
2023/10/27 06:31:26;;;;;;;23.37;7.23;;;;;;;;;;4997796;28;20663;-70
2023/10/27 06:33:52;;;;;;;26.47;7.53;;;;;;;;;;4996219;28;20581;-70
2023/10/27 06:36:18;;;;;;;19.73;7.17;;;;;;;;;;4997890;28;20642;-70
2023/10/27 06:38:44;;;;;;;26.63;8.00;;;;;;;;;;4995892;28;20282;-70
2023/10/27 06:41:10;;;;;;;23.73;8.43;;;;;;;;;;4996094;28;20176;-70
2023/10/27 06:43:36;;;;;;;19.30;7.53;;;;;;;;;;4997709;28;20243;-70
2023/10/27 06:46:02;;;;;;;16.73;7.23;;;;;;;;;;4997672;28;20247;-70
2023/10/27 06:48:28;;;;;;;25.57;7.07;;;;;;;;;;4996053;28;20647;-70
2023/10/27 06:50:54;;;;;;;23.23;7.87;;;;;;;;;;4996108;28;20192;-70
2023/10/27 06:53:20;;;;;;;21.07;7.10;;;;;;;;;;4997263;28;20249;-70
2023/10/27 06:55:46;;;;;;;18.30;6.93;;;;;;;;;;4996354;28;20181;-70
2023/10/27 06:58:12;;;;;;;19.77;7.27;;;;;;;;;;4997247;28;20258;-70
2023/10/27 07:00:38;;;;;;;17.20;7.70;;;;;;;;;;4995990;28;20176;-70
2023/10/27 07:03:04;;;;;;;22.90;7.50;;;;;;;;;;4996846;28;20238;-70
2023/10/27 07:05:30;;;;;;;21.93;7.67;;;;;;;;;;4997689;28;20188;-69
2023/10/27 07:07:56;;;;;;;20.63;7.70;;;;;;;;;;4996840;28;20184;-70
2023/10/27 07:10:22;;;;;;;22.33;8.73;;;;;;;;;;4995876;28;20180;-70
2023/10/27 07:12:48;;;;;;;18.40;8.03;;;;;;;;;;4996788;28;20208;-70
2023/10/27 07:15:14;;;;;;;25.57;8.47;;;;;;;;;;4995504;28;20185;-70
2023/10/27 07:17:41;;;;;;;23.40;8.93;;;;;;;;;;4995423;28;20229;-70
2023/10/27 07:20:07;;;;;;;21.10;8.93;;;;;;;;;;4996847;28;20528;-70
2023/10/27 07:22:35;;;;;;;20.23;9.03;;;;;;;;;;4996465;28;20615;-70
2023/10/27 07:25:01;;;;;;;24.43;9.20;;;;;;;;;;4996354;28;20180;-69
2023/10/27 07:27:26;;;;;;;21.63;9.47;;;;;;;;;;4995318;28;20180;-70
2023/10/27 07:29:52;;;;;;;26.73;9.97;;;;;;;;;;4995202;28;20188;-70
2023/10/27 07:32:18;;;;;;;18.90;8.90;;;;;;;;;;4996179;28;20204;-69
2023/10/27 07:34:44;;;;;;;23.70;9.40;;;;;;;;;;4994556;28;20358;-70
2023/10/27 07:37:10;;;;;;;23.07;8.83;;;;;;;;;;4996245;28;20177;-70
2023/10/27 07:39:36;;;;;;;19.17;9.23;;;;;;;;;;4994913;28;20180;-70
2023/10/27 07:42:03;;;;;;;20.27;8.80;;;;;;;;;;4994668;28;20192;-70
2023/10/27 07:44:29;;;;;;;27.83;9.80;;;;;;;;;;4996048;28;20191;-71
2023/10/27 07:46:55;;;;;;;24.73;8.93;;;;;;;;;;4996034;28;20263;-70
2023/10/27 07:49:21;;;;;;;20.00;8.50;;;;;;;;;;4995965;28;20582;-70
2023/10/27 07:51:48;;;;;;;18.63;9.33;;;;;;;;;;4996563;28;20216;-70
2023/10/27 07:54:14;;;;;;;17.20;9.40;;;;;;;;;;4996207;28;20192;-70
2023/10/27 07:56:40;;;;;;;25.33;8.83;;;;;;;;;;4995943;28;20184;-71
2023/10/27 07:59:06;;;;;;;24.07;10.97;;;;;;;;;;4994903;28;20179;-70
2023/10/27 08:01:32;;;;;;;22.83;9.90;;;;;;;;;;4996215;28;20204;-70
2023/10/27 08:03:59;;;;;;;16.73;7.30;;;;;;;;;;4996027;28;20189;-69
2023/10/27 08:06:25;;;;;;;17.60;7.23;;;;;;;;;;4994943;28;20565;-70
2023/10/27 08:08:51;;;;;;;15.97;7.53;;;;;;;;;;4994548;28;20189;-70
2023/10/27 08:11:21;;;;;;;21.87;9.20;;;;;;;;;;4994173;28;20187;-70
2023/10/27 08:13:47;;;;;;;18.80;8.60;;;;;;;;;;4995702;28;20192;-70
2023/10/27 08:16:13;;;;;;;19.20;9.40;;;;;;;;;;4994221;28;20203;-69
2023/10/27 08:18:39;;;;;;;20.60;8.87;;;;;;;;;;4996135;28;20260;-70
2023/10/27 08:21:05;;;;;;;13.77;7.17;;;;;;;;;;4996684;28;20211;-69
2023/10/27 08:23:31;;;;;;;19.17;11.40;;;;;;;;;;4996653;28;20204;-69
2023/10/27 08:25:57;;;;;;;20.27;9.37;;;;;;;;;;4997309;28;20221;-70
2023/10/27 08:28:24;;;;;;;13.43;6.83;;;;;;;;;;4995273;28;20234;-70
2023/10/27 08:30:50;;;;;;;13.40;7.33;;;;;;;;;;4996894;28;20528;-69
2023/10/27 08:33:16;;;;;;;13.13;7.33;;;;;;;;;;4996822;28;20667;-70
2023/10/27 08:35:42;;;;;;;11.53;7.30;;;;;;;;;;4996222;28;20177;-70
2023/10/27 08:38:08;;;;;;;10.93;6.93;;;;;;;;;;4995108;28;20180;-70
2023/10/27 08:40:37;;;;;;;18.73;7.33;;;;;;;;;;4994976;28;20176;-70
2023/10/27 08:43:03;;;;;;;14.33;7.27;;;;;;;;;;4995412;28;20197;-70
2023/10/27 08:45:30;;;;;;;13.17;7.27;;;;;;;;;;4993584;28;20235;-70
2023/10/27 08:47:56;;;;;;;11.03;7.00;;;;;;;;;;4993455;28;20669;-70
2023/10/27 08:50:23;;;;;;;24.33;13.93;;;;;;;;;;4993555;28;20181;-70
2023/10/27 08:52:49;;;;;;;33.63;18.90;;;;;;;;;;4994831;28;20216;-70
2023/10/27 08:55:15;;;;;;;21.23;11.80;;;;;;;;;;4995244;28;20651;-69
2023/10/27 08:57:41;;;;;;;16.30;11.40;;;;;;;;;;4995217;28;20626;-70
2023/10/27 09:00:07;;;;;;;15.33;9.87;;;;;;;;;;4993819;28;20196;-69
2023/10/27 09:02:34;;;;;;;15.13;10.10;;;;;;;;;;4993680;28;20208;-69
2023/10/27 09:05:04;;;;;;;11.17;9.03;;;;;;;;;;4993718;28;20188;-69
2023/10/27 09:07:31;;;;;;;14.03;8.37;;;;;;;;;;4993813;28;20674;-69
2023/10/27 09:09:58;;;;;;;25.00;15.40;;;;;;;;;;4995204;28;20180;-69
2023/10/27 09:12:26;;;;;;;17.93;10.13;;;;;;;;;;4994729;28;20196;-69
2023/10/27 09:14:59;;;;;;;31.03;18.33;;;;;;;;;;4993616;28;20227;-69
2023/10/27 09:17:25;;;;;;;19.97;13.07;;;;;;;;;;4993323;28;20268;-69
2023/10/27 09:20:05;;;;;;;13.43;9.27;;;;;;;;;;4994743;28;20636;-70
2023/10/27 09:22:31;;;;;;;11.67;9.27;;;;;;;;;;4994977;28;20196;-70
2023/10/27 09:25:28;;;;;;;14.57;11.03;;;;;;;;;;4993272;28;20187;-69
2023/10/27 09:27:54;;;;;;;13.53;10.93;;;;;;;;;;4988836;28;20188;-69
2023/10/27 09:30:27;;;;;;;12.20;9.73;;;;;;;;;;4993281;28;20279;-69
2023/10/27 09:32:53;;;;;;;11.53;9.93;;;;;;;;;;4993111;28;20200;-69
2023/10/27 09:35:22;;;;;;;9.53;8.07;;;;;;;;;;4994578;28;20264;-69
2023/10/27 09:37:49;;;;;;;12.43;10.43;;;;;;;;;;4993296;28;20190;-68
2023/10/27 09:40:15;;;;;;;17.63;11.53;;;;;;;;;;4994337;28;20583;-69
2023/10/27 09:42:43;;;;;;;15.37;10.13;;;;;;;;;;4994633;28;20197;-70
2023/10/27 09:45:11;;;;;;;19.07;10.93;;;;;;;;;;4993594;28;20278;-69
2023/10/27 09:47:47;;;;;;;12.83;10.87;;;;;;;;;;4993285;28;20192;-69
2023/10/27 09:50:14;;;;;;;13.10;10.53;;;;;;;;;;4992893;28;20565;-69
2023/10/27 09:52:42;;;;;;;13.97;11.13;;;;;;;;;;4993734;28;20290;-69
2023/10/27 09:55:08;;;;;;;11.90;8.17;;;;;;;;;;4994038;28;20678;-69
2023/10/27 09:57:35;;;;;;;11.80;10.03;;;;;;;;;;4997734;28;20184;-69
2023/10/27 10:00:04;;;;;;;13.47;10.30;;;;;;;;;;4998329;28;20176;-69
2023/10/27 10:02:32;;;;;;;8.97;8.03;;;;;;;;;;4996572;28;20203;-70
2023/10/27 10:05:00;;;;;;;10.43;8.60;;;;;;;;;;4998167;28;20172;-70
2023/10/27 10:07:37;;;;;;;9.43;8.47;;;;;;;;;;4998038;28;20181;-68
2023/10/27 10:10:22;;;;;;;11.67;10.47;;;;;;;;;;4996518;28;20609;-69
2023/10/27 10:13:00;;;;;;;9.83;8.90;;;;;;;;;;4997831;28;20188;-69
2023/10/27 10:15:47;;;;;;;11.70;10.50;;;;;;;;;;4998035;28;20246;-69
2023/10/27 10:18:22;;;;;;;12.87;11.57;;;;;;;;;;4998293;28;20180;-69
2023/10/27 10:20:48;;;;;;;10.00;8.97;;;;;;;;;;4997856;28;20164;-70
2023/10/27 10:23:14;;;;;;;12.07;10.77;;;;;;;;;;4997492;28;20263;-69
2023/10/27 10:25:50;;;;;;;12.50;10.20;;;;;;;;;;4996460;28;20223;-69
2023/10/27 10:28:16;;;;;;;12.90;11.17;;;;;;;;;;4997434;28;20179;-69
2023/10/27 10:30:43;;;;;;;12.60;10.87;;;;;;;;;;4997631;28;20184;-69
2023/10/27 10:33:22;;;;;;;11.50;10.07;;;;;;;;;;4997162;28;20629;-69
2023/10/27 10:35:48;;;;;;;12.67;11.00;;;;;;;;;;4996165;28;20198;-69
2023/10/27 10:38:26;;;;;;;13.17;11.30;;;;;;;;;;4997387;28;20184;-69
2023/10/27 10:40:53;;;;;;;12.03;10.77;;;;;;;;;;4997541;28;20703;-69
2023/10/27 10:43:26;;;;;;;14.33;12.00;;;;;;;;;;4996000;28;20279;-69
2023/10/27 10:46:12;;;;;;;16.90;12.93;;;;;;;;;;4996302;28;20177;-70
2023/10/27 10:48:42;;;;;;;18.20;12.70;;;;;;;;;;4998282;28;20165;-70
2023/10/27 10:51:14;;;;;;;12.50;10.67;;;;;;;;;;4998452;28;20223;-70
2023/10/27 10:53:40;;;;;;;11.33;9.73;;;;;;;;;;4996639;28;20297;-70
2023/10/27 10:56:07;;;;;;;12.33;10.40;;;;;;;;;;4997548;28;20259;-69
2023/10/27 10:58:33;;;;;;;10.00;9.00;;;;;;;;;;4997000;28;20177;-69
2023/10/27 11:01:00;;;;;;;13.00;10.20;;;;;;;;;;4995546;28;20189;-70
2023/10/27 11:03:28;;;;;;;12.87;11.20;;;;;;;;;;4996822;28;20200;-69
2023/10/27 11:05:58;;;;;;;12.20;10.90;;;;;;;;;;4996751;28;20259;-69
2023/10/27 11:08:25;;;;;;;12.67;11.27;;;;;;;;;;4996548;28;20231;-70
2023/10/27 11:11:13;;;;;;;16.33;13.33;;;;;;;;;;4996701;28;20184;-70
2023/10/27 11:13:43;;;;;;;16.43;13.47;;;;;;;;;;4996522;28;20258;-70
2023/10/27 11:16:17;;;;;;;14.37;12.87;;;;;;;;;;4997016;28;20629;-70
2023/10/27 11:18:46;;;;;;;14.30;12.90;;;;;;;;;;4996605;28;20212;-70
2023/10/27 11:21:19;;;;;;;15.57;12.97;;;;;;;;;;4996972;28;20661;-71
2023/10/27 11:23:45;;;;;;;12.90;11.63;;;;;;;;;;4996774;28;20264;-69
2023/10/27 11:26:11;;;;;;;15.93;12.53;;;;;;;;;;4996488;28;20659;-70
2023/10/27 11:28:41;;;;;;;12.47;11.20;;;;;;;;;;4995376;28;20188;-70
2023/10/27 11:31:08;;;;;;;13.43;12.03;;;;;;;;;;4996813;28;20685;-70
2023/10/27 11:33:55;;;;;;;11.93;10.73;;;;;;;;;;4996555;28;20204;-70
2023/10/27 11:36:21;;;;;;;14.00;11.80;;;;;;;;;;4996065;28;20180;-70
2023/10/27 11:38:47;;;;;;;14.90;12.10;;;;;;;;;;4995821;28;20261;-70
2023/10/27 11:41:13;;;;;;;13.40;12.00;;;;;;;;;;4996855;28;20181;-69
2023/10/27 11:43:42;;;;;;;15.43;13.77;;;;;;;;;;4994890;28;20268;-69
2023/10/27 11:46:12;;;;;;;17.90;13.57;;;;;;;;;;4996318;28;20187;-69
2023/10/27 11:48:38;;;;;;;16.50;13.93;;;;;;;;;;4994815;28;20258;-69
2023/10/27 11:51:04;;;;;;;19.50;14.17;;;;;;;;;;4994839;28;20292;-69
2023/10/27 11:53:30;;;;;;;16.97;15.23;;;;;;;;;;4995712;28;20694;-69
2023/10/27 11:55:56;;;;;;;17.00;14.10;;;;;;;;;;4996740;28;20272;-68
2023/10/27 11:58:22;;;;;;;16.47;14.57;;;;;;;;;;4994723;28;20208;-68
2023/10/27 12:03:18;;;;;;;15.60;13.33;;;;;;;;;;5032785;28;20677;-71
2023/10/27 12:05:44;;;;;;;15.57;12.80;;;;;;;;;;5033973;28;20214;-71
2023/10/27 12:08:10;;;;;;;15.30;13.70;;;;;;;;;;5034343;28;20178;-71
2023/10/27 12:10:36;;;;;;;17.00;15.20;;;;;;;;;;5032771;28;20544;-71
2023/10/27 12:13:06;;;;;;;18.90;16.83;;;;;;;;;;5033986;28;20712;-71
2023/10/27 12:15:33;;;;;;;20.20;17.17;;;;;;;;;;5034405;28;20590;-71
2023/10/27 12:17:59;;;;;;;18.77;16.03;;;;;;;;;;5034066;28;20172;-71
2023/10/27 12:20:27;;;;;;;19.23;15.63;;;;;;;;;;5031849;28;20183;-71
2023/10/27 12:22:55;;;;;;;24.17;15.37;;;;;;;;;;5032228;28;20250;-71
2023/10/27 12:25:21;;;;;;;20.70;16.93;;;;;;;;;;5032777;28;20179;-71
2023/10/27 12:27:47;;;;;;;22.20;16.30;;;;;;;;;;5033832;28;20559;-71
2023/10/27 12:30:16;;;;;;;22.33;15.77;;;;;;;;;;5033627;28;20183;-70
2023/10/27 12:32:44;;;;;;;23.60;16.03;;;;;;;;;;5032256;28;20203;-71
2023/10/27 12:35:11;;;;;;;23.70;15.20;;;;;;;;;;5033445;28;20517;-70
2023/10/27 12:37:37;;;;;;;24.67;16.90;;;;;;;;;;5033550;28;20680;-70
2023/10/27 12:40:06;;;;;;;24.23;15.90;;;;;;;;;;5033975;28;20211;-70
2023/10/27 12:42:32;;;;;;;26.40;16.53;;;;;;;;;;5032256;28;20221;-72
2023/10/27 12:44:58;;;;;;;20.50;15.73;;;;;;;;;;5032190;28;20179;-71
2023/10/27 12:47:25;;;;;;;23.37;15.03;;;;;;;;;;5033677;28;20233;-68
2023/10/27 12:49:51;;;;;;;21.77;14.37;;;;;;;;;;5033540;28;20269;-70
2023/10/27 12:52:17;;;;;;;17.93;13.70;;;;;;;;;;5033040;28;20235;-70
2023/10/27 12:54:43;;;;;;;19.10;14.87;;;;;;;;;;5033389;28;20289;-70
2023/10/27 12:57:09;;;;;;;51.17;35.83;;;;;;;;;;5032059;28;20237;-69
2023/10/27 12:59:35;;;;;;;24.17;18.07;;;;;;;;;;5034450;28;20188;-70
2023/10/27 13:02:01;;;;;;;107.50;81.83;;;;;;;;;;5036343;28;20210;-70
2023/10/27 13:04:27;;;;;;;25.77;19.27;;;;;;;;;;5031781;28;20546;-70
2023/10/27 13:06:54;;;;;;;37.20;25.00;;;;;;;;;;5033081;28;20679;-70
2023/10/27 13:09:20;;;;;;;92.83;51.90;;;;;;;;;;5032963;28;20186;-70
2023/10/27 13:11:47;;;;;;;43.63;25.47;;;;;;;;;;5032869;28;20669;-69
2023/10/27 13:14:13;;;;;;;35.17;22.07;;;;;;;;;;5031531;28;20699;-70
2023/10/27 13:16:40;;;;;;;82.67;51.17;;;;;;;;;;5033765;28;20206;-69
2023/10/27 13:19:10;;;;;;;81.27;46.33;;;;;;;;;;5032962;28;20537;-69
2023/10/27 13:21:36;;;;;;;19.93;15.17;;;;;;;;;;5031743;28;20253;-70
2023/10/27 13:24:03;;;;;;;43.17;35.30;;;;;;;;;;5031678;28;20175;-70
2023/10/27 13:26:29;;;;;;;14.53;8.83;;;;;;;;;;5031964;28;20182;-69
2023/10/27 13:28:57;;;;;;;34.93;29.50;;;;;;;;;;5033099;28;20175;-70
2023/10/27 13:31:23;;;;;;;15.20;9.47;;;;;;;;;;5033036;28;20238;-69
2023/10/27 13:33:49;;;;;;;12.37;10.17;;;;;;;;;;5036271;28;20570;-70
2023/10/27 13:36:16;;;;;;;23.73;14.67;;;;;;;;;;5036132;28;20258;-70
2023/10/27 13:38:43;;;;;;;11.67;8.63;;;;;;;;;;5034276;28;20185;-70
2023/10/27 13:41:16;;;;;;;17.90;9.80;;;;;;;;;;5033611;28;20711;-71
2023/10/27 13:43:42;;;;;;;12.70;10.63;;;;;;;;;;5032350;28;20194;-69
2023/10/27 13:46:08;;;;;;;18.67;11.13;;;;;;;;;;5033536;28;20241;-69
2023/10/27 13:48:34;;;;;;;14.03;10.23;;;;;;;;;;5032562;28;20211;-70
2023/10/27 13:51:16;;;;;;;13.83;10.03;;;;;;;;;;5033615;28;20551;-71
2023/10/27 13:53:42;;;;;;;16.07;9.90;;;;;;;;;;5034250;28;20801;-70
2023/10/27 13:56:12;;;;;;;14.00;9.03;;;;;;;;;;5033158;28;20269;-70
2023/10/27 13:58:42;;;;;;;12.27;7.80;;;;;;;;;;5034582;28;20230;-71
2023/10/27 14:01:08;;;;;;;14.73;8.90;;;;;;;;;;5033687;28;20178;-71
2023/10/27 14:03:40;;;;;;;15.60;7.67;;;;;;;;;;5032654;28;20225;-70
2023/10/27 14:06:12;;;;;;;9.23;6.27;;;;;;;;;;5032329;28;20222;-69
2023/10/27 14:08:38;;;;;;;13.47;6.27;;;;;;;;;;5032887;28;20270;-70
2023/10/27 14:11:05;;;;;;;14.97;6.47;;;;;;;;;;5033662;28;20211;-71
2023/10/27 14:13:32;;;;;;;10.03;5.60;;;;;;;;;;5031537;28;20207;-70
2023/10/27 14:15:58;;;;;;;12.17;5.50;;;;;;;;;;5032106;28;20598;-70
2023/10/27 14:18:24;;;;;;;9.40;5.80;;;;;;;;;;5033701;28;20266;-71
2023/10/27 14:20:54;;;;;;;17.83;5.53;;;;;;;;;;5033922;28;20684;-70
2023/10/27 14:23:20;;;;;;;12.47;5.93;;;;;;;;;;5032210;28;20556;-70